»·PEaware :: N101HZ KVNY-KOAK

N101HZ :: KVNY-KOAK

FLIGHT INFORMATION

Flight Status: Arrived
Operator: Privately registered:
United States
More flights under this callsign
Pilot: Chris A. (85)
Aircraft: DASSAULT AVIATION FALCON 2000
(F2TH)
More flights by this aircraft type
Origin: KVNY Van Nuys
United States
Destination: KOAK Metro Oakland Intl
United States
More flights between these airports :: More routes between these airports
Route: +HAYEZ6 COREZ RGOOD EMZOH3
File this flight plan on PilotEdge
Remarks: PBN / A1B1D1 DOF / 180113 REG / N101HZ EET / KZOA0017 RMK / TCAS
Altitude:
(Current/Filed)
40,000ft
Speed:
(Current/Filed)
394kts
Departed: 12-Jan-18 09:15 PM
Arrived: 12-Jan-18 10:06 PM
Distance/Time
Traveled:
278nm/0:51
Distance/Time
To Go:
Arrived

Flight Plot

Page will automatically refresh every two minutes.

Flight plan parsing failed; only flown route is shown


Map Options




Map Legend


Flown Route
Filed Route
Departure Airport
Arrival Airport
Navaid (VOR, NDB)
Fix

Horizontal Profiles

Position Reports

Time Latitude Longitude Heading Altitude Ground
Speed
12-Jan-18 20:48 34.205942 -118.486885 179 807ft 0kts
12-Jan-18 20:49 34.205942 -118.486885 179 807ft 0kts
12-Jan-18 20:50 34.205942 -118.486885 179 807ft 0kts
12-Jan-18 20:51 34.205942 -118.486885 179 807ft 0kts
12-Jan-18 20:52 34.205942 -118.486885 179 807ft 0kts
12-Jan-18 20:53 34.205942 -118.486885 179 807ft 0kts
12-Jan-18 20:54 34.205942 -118.486885 179 807ft 0kts
12-Jan-18 20:55 34.205942 -118.486885 179 807ft 0kts
12-Jan-18 20:56 34.205942 -118.486885 179 807ft 0kts
12-Jan-18 20:57 34.205942 -118.486885 179 807ft 0kts
12-Jan-18 20:58 34.205942 -118.486885 179 807ft 0kts
12-Jan-18 20:59 34.205942 -118.486885 179 807ft 0kts
12-Jan-18 21:00 34.205942 -118.486885 179 807ft 0kts
12-Jan-18 21:01 34.205942 -118.486885 179 807ft 0kts
12-Jan-18 21:02 34.205942 -118.486885 179 807ft 0kts
12-Jan-18 21:03 34.205942 -118.486885 179 807ft 0kts
12-Jan-18 21:04 34.205942 -118.486885 179 807ft 0kts
12-Jan-18 21:05 34.205942 -118.486885 179 807ft 0kts
12-Jan-18 21:06 34.205942 -118.486885 179 807ft 0kts
12-Jan-18 21:07 34.205942 -118.486885 179 807ft 0kts
12-Jan-18 21:08 34.205942 -118.486885 179 807ft 0kts
12-Jan-18 21:09 34.205942 -118.486885 179 807ft 0kts
12-Jan-18 21:10 34.205942 -118.486885 179 807ft 0kts
12-Jan-18 21:11 34.205942 -118.486885 179 807ft 0kts
12-Jan-18 21:12 34.205942 -118.486885 179 807ft 0kts
12-Jan-18 21:13 34.205942 -118.486885 179 807ft 0kts
12-Jan-18 21:14 34.205942 -118.486885 179 807ft 0kts
12-Jan-18 21:15 34.205942 -118.486885 179 807ft 0kts
12-Jan-18 21:16 34.205785 -118.486980 236 807ft 4kts
12-Jan-18 21:17 34.204249 -118.488501 184 807ft 9kts
12-Jan-18 21:18 34.201452 -118.488581 178 807ft 10kts
12-Jan-18 21:19 34.198755 -118.488548 175 807ft 8kts
12-Jan-18 21:20 34.197115 -118.488895 276 807ft 4kts
12-Jan-18 21:21 34.209722 -118.490414 354 1027ft 141kts
12-Jan-18 21:22 34.256119 -118.497582 351 2858ft 165kts
12-Jan-18 21:23 34.309211 -118.509417 350 4840ft 249kts
12-Jan-18 21:24 34.375221 -118.537684 313 7199ft 250kts
12-Jan-18 21:25 34.409624 -118.617588 291 10118ft 301kts
12-Jan-18 21:26 34.463463 -118.697043 323 13349ft 332kts
12-Jan-18 21:27 34.547632 -118.760494 329 16773ft 376kts
12-Jan-18 21:28 34.641192 -118.825954 329 20516ft 398kts
12-Jan-18 21:29 34.738165 -118.894519 329 24327ft 402kts
12-Jan-18 21:30 34.832785 -118.961886 328 28111ft 384kts
12-Jan-18 21:31 34.921555 -119.025348 327 31307ft 365kts
12-Jan-18 21:32 35.010411 -119.089042 326 33320ft 372kts
12-Jan-18 21:33 35.099783 -119.153153 326 35316ft 372kts
12-Jan-18 21:34 35.186020 -119.215249 326 36345ft 389kts
12-Jan-18 21:35 35.283208 -119.285522 326 36363ft 421kts
12-Jan-18 21:36 35.385832 -119.359711 326 36363ft 425kts
12-Jan-18 21:37 35.487589 -119.433462 326 36372ft 423kts
12-Jan-18 21:38 35.585020 -119.513133 319 36378ft 420kts
12-Jan-18 21:39 35.675754 -119.604089 317 36378ft 420kts
12-Jan-18 21:40 35.765158 -119.696331 317 36389ft 420kts
12-Jan-18 21:41 35.854564 -119.788558 317 36396ft 420kts
12-Jan-18 21:42 35.942173 -119.884138 314 36397ft 419kts
12-Jan-18 21:43 36.026473 -119.983274 313 36397ft 419kts
12-Jan-18 21:44 36.110612 -120.083403 313 36397ft 419kts
12-Jan-18 21:45 36.194132 -120.183073 313 36163ft 405kts
12-Jan-18 21:46 36.271785 -120.275921 313 35075ft 389kts
12-Jan-18 21:47 36.350866 -120.370952 313 33976ft 400kts
12-Jan-18 21:48 36.431685 -120.468260 314 32643ft 411kts
12-Jan-18 21:49 36.514607 -120.568204 315 31090ft 421kts
12-Jan-18 21:50 36.601646 -120.667059 317 29226ft 418kts
12-Jan-18 21:51 36.687505 -120.762107 317 27228ft 410kts
12-Jan-18 21:52 36.770538 -120.854237 317 25222ft 388kts
12-Jan-18 21:53 36.849776 -120.942057 317 23224ft 376kts
12-Jan-18 21:54 36.926986 -121.027846 317 21230ft 368kts
12-Jan-18 21:55 37.002596 -121.112117 317 19226ft 353kts
12-Jan-18 21:56 37.073999 -121.191939 317 17227ft 337kts
12-Jan-18 21:57 37.142964 -121.270008 317 15223ft 330kts
12-Jan-18 21:58 37.209907 -121.347424 317 13331ft 324kts
12-Jan-18 21:59 37.275468 -121.423746 317 11534ft 320kts
12-Jan-18 22:00 37.338187 -121.497082 318 9725ft 281kts
12-Jan-18 22:01 37.391614 -121.559030 319 8234ft 247kts
12-Jan-18 22:02 37.439774 -121.617424 313 7034ft 230kts
12-Jan-18 22:03 37.477150 -121.679338 309 6994ft 219kts
12-Jan-18 22:04 37.514916 -121.745651 308 6134ft 246kts
12-Jan-18 22:05 37.555995 -121.817439 309 5339ft 250kts
12-Jan-18 22:06 37.595837 -121.885244 310 5286ft 233kts
12-Jan-18 22:07 37.639997 -121.945297 308 4247ft 230kts
12-Jan-18 22:08 37.665304 -122.017715 289 2977ft 219kts
12-Jan-18 22:09 37.685698 -122.083971 296 1974ft 180kts
12-Jan-18 22:10 37.702667 -122.136458 293 1151ft 151kts
12-Jan-18 22:11 37.718867 -122.185932 291 364ft 150kts
12-Jan-18 22:12 37.730290 -122.221507 314 11ft 7kts
12-Jan-18 22:13 37.730595 -122.219494 113 11ft 10kts
12-Jan-18 22:14 37.730742 -122.215780 70 11ft 10kts
12-Jan-18 22:15 37.729442 -122.212922 125 11ft 9kts
12-Jan-18 22:16 37.729470 -122.211391 302 11ft 0kts
12-Jan-18 22:17 37.729471 -122.211392 302 11ft 0kts
12-Jan-18 22:18 37.729471 -122.211392 302 11ft 0kts
12-Jan-18 22:19 37.729471 -122.211392 302 11ft 0kts
12-Jan-18 22:20 37.729471 -122.211392 302 11ft 0kts

Navigation Log

Ident Type
Flight plan parsing failed, navigation log unavailable